地図

経路データ

SID SEASON NUMBER BASIN SUBBASIN NAME ISO_TIME NATURE LAT LON WMO_WIND WMO_PRES WMO_AGENCY TRACK_TYPE DIST2LAND LANDFALL IFLAG USA_AGENCY USA_ATCF_ID USA_LAT USA_LON USA_RECORD USA_STATUS USA_WIND USA_PRES USA_SSHS USA_R34_NE USA_R34_SE USA_R34_SW USA_R34_NW USA_R50_NE USA_R50_SE USA_R50_SW USA_R50_NW USA_R64_NE USA_R64_SE USA_R64_SW USA_R64_NW USA_POCI USA_ROCI USA_RMW USA_EYE TOKYO_LAT TOKYO_LON TOKYO_GRADE TOKYO_WIND TOKYO_PRES TOKYO_R50_DIR TOKYO_R50_LONG TOKYO_R50_SHORT TOKYO_R30_DIR TOKYO_R30_LONG TOKYO_R30_SHORT TOKYO_LAND CMA_LAT CMA_LON CMA_CAT CMA_WIND CMA_PRES HKO_LAT HKO_LON HKO_CAT HKO_WIND HKO_PRES NEWDELHI_LAT NEWDELHI_LON NEWDELHI_GRADE NEWDELHI_WIND NEWDELHI_PRES NEWDELHI_CI NEWDELHI_DP NEWDELHI_POCI REUNION_LAT REUNION_LON REUNION_TYPE REUNION_WIND REUNION_PRES REUNION_TNUM REUNION_CI REUNION_RMW REUNION_R34_NE REUNION_R34_SE REUNION_R34_SW REUNION_R34_NW REUNION_R50_NE REUNION_R50_SE REUNION_R50_SW REUNION_R50_NW REUNION_R64_NE REUNION_R64_SE REUNION_R64_SW REUNION_R64_NW BOM_LAT BOM_LON BOM_TYPE BOM_WIND BOM_PRES BOM_TNUM BOM_CI BOM_RMW BOM_R34_NE BOM_R34_SE BOM_R34_SW BOM_R34_NW BOM_R50_NE BOM_R50_SE BOM_R50_SW BOM_R50_NW BOM_R64_NE BOM_R64_SE BOM_R64_SW BOM_R64_NW BOM_ROCI BOM_POCI BOM_EYE BOM_POS_METHOD BOM_PRES_METHOD NADI_LAT NADI_LON NADI_CAT NADI_WIND NADI_PRES WELLINGTON_LAT WELLINGTON_LON WELLINGTON_WIND WELLINGTON_PRES DS824_LAT DS824_LON DS824_STAGE DS824_WIND DS824_PRES TD9636_LAT TD9636_LON TD9636_STAGE TD9636_WIND TD9636_PRES TD9635_LAT TD9635_LON TD9635_WIND TD9635_PRES TD9635_ROCI NEUMANN_LAT NEUMANN_LON NEUMANN_CLASS NEUMANN_WIND NEUMANN_PRES MLC_LAT MLC_LON MLC_CLASS MLC_WIND MLC_PRES USA_GUST BOM_GUST BOM_GUST_PER REUNION_GUST REUNION_GUST_PER USA_SEAHGT USA_SEARAD_NE USA_SEARAD_SE USA_SEARAD_SW USA_SEARAD_NW STORM_SPEED STORM_DIR
1973199N11253 1973 68 EP MM DOREEN 1973-07-18 00:00:00 TS 10.6000 -107.000 40 hurdat_epa main 940 940 O________OO___ hurdat_epa EP041973 10.6000 -107.000 TS 40 0 10.6000 -107.000 TC 40 10.6000 -107.000 2 40 23 275
1973199N11253 1973 68 EP MM DOREEN 1973-07-18 03:00:00 TS 10.7017 -108.166 main 989 989 P________PP___ EP041973 10.7044 -108.350 TS 42 0 10.7044 -108.350 TC 42 10.6909 -107.431 2 21 275
1973199N11253 1973 68 EP MM DOREEN 1973-07-18 06:00:00 TS 10.7967 -109.094 45 hurdat_epa main 1033 1033 O________OP___ hurdat_epa EP041973 10.8000 -109.400 TS 45 0 10.8000 -109.400 TC 45 10.7835 -107.872 2 15 277
1973199N11253 1973 68 EP MM DOREEN 1973-07-18 09:00:00 TS 10.8893 -109.637 main 1056 1056 P________PP___ EP041973 10.8916 -109.963 TS 50 0 10.8916 -109.963 TC 50 10.8801 -108.334 2 9 283
1973199N11253 1973 68 EP MM DOREEN 1973-07-18 12:00:00 TS 10.9966 -110.005 55 hurdat_epa main 1074 1074 O________OP___ hurdat_epa EP041973 11.0000 -110.300 TS 55 0 11.0000 -110.300 TC 55 10.9831 -108.826 2 9 287
1973199N11253 1973 68 EP MM DOREEN 1973-07-18 15:00:00 TS 11.1388 -110.472 main 1093 1084 P________PP___ EP041973 11.1499 -110.750 TS 57 0 11.1499 -110.750 TC 57 11.0945 -109.358 2 10 287
1973199N11253 1973 68 EP MM DOREEN 1973-07-18 18:00:00 TS 11.2833 -110.948 60 hurdat_epa main 1099 1099 O________OP___ hurdat_epa EP041973 11.3000 -111.200 TS 60 0 11.3000 -111.200 TC 60 11.2165 -109.941 2 10 285
1973199N11253 1973 68 EP MM DOREEN 1973-07-18 21:00:00 TS 11.3902 -111.437 main 1123 1123 P________PP___ EP041973 11.3999 -111.650 TS 62 0 11.3999 -111.650 TC 62 11.3510 -110.585 2 10 283
1973199N11253 1973 68 EP MM DOREEN 1973-07-19 00:00:00 TS 11.5000 -111.940 65 hurdat_epa main 1149 1149 O________OO___ hurdat_epa EP041973 11.5000 -112.100 HU 65 1 11.5000 -112.100 TC 65 11.5000 -111.300 4 65 10 285
1973199N11253 1973 68 EP MM DOREEN 1973-07-19 03:00:00 TS 11.6405 -112.416 main 1177 1176 P________PP___ EP041973 11.6346 -112.498 HU 67 1 11.6346 -112.498 TC 67 11.6639 -112.090 4 73 11 287
1973199N11253 1973 68 EP MM DOREEN 1973-07-19 06:00:00 TS 11.8077 -112.985 70 hurdat_epa main 1206 1206 O________OP___ hurdat_epa EP041973 11.8000 -113.000 HU 70 1 11.8000 -113.000 TC 70 11.8386 -112.926 4 82 14 285
1973199N11253 1973 68 EP MM DOREEN 1973-07-19 09:00:00 TS 12.0039 -113.759 main 1252 1252 P________PP___ EP041973 12.0002 -113.755 HU 85 2 12.0002 -113.755 TC 85 12.0188 -113.775 4 91 16 284
1973199N11253 1973 68 EP MM DOREEN 1973-07-19 12:00:00 TS 12.2000 -114.600 100 hurdat_epa main 1292 1292 O________OO___ hurdat_epa EP041973 12.2000 -114.600 HU 100 3 12.2000 -114.600 TC 100 12.2000 -114.600 4 100 16 283
1973199N11253 1973 68 EP MM DOREEN 1973-07-19 15:00:00 TS 12.3531 -115.366 main 1306 1306 P________PP___ EP041973 12.3498 -115.365 HU 100 3 12.3498 -115.365 TC 100 12.3662 -115.370 4 100 15 282
1973199N11253 1973 68 EP MM DOREEN 1973-07-19 18:00:00 TS 12.5068 -116.102 100 973 hurdat_epa main 1330 1330 O________OP___ hurdat_epa EP041973 12.5000 -116.100 HU 100 973 3 12.5000 -116.100 TC 100 973 12.5342 -116.110 4 100 15 283
1973199N11253 1973 68 EP MM DOREEN 1973-07-19 21:00:00 TS 12.6899 -116.822 main 1348 1348 P________PP___ EP041973 12.6849 -116.823 HU 100 3 12.6849 -116.823 TC 100 12.7101 -116.820 4 100 14 286
1973199N11253 1973 68 EP MM DOREEN 1973-07-20 00:00:00 TS 12.9000 -117.500 100 hurdat_epa main 1370 1367 O________OO___ hurdat_epa EP041973 12.9000 -117.500 HU 100 3 12.9000 -117.500 TC 100 12.9000 -117.500 4 100 13 290
1973199N11253 1973 68 EP MM DOREEN 1973-07-20 03:00:00 TS 13.1458 -118.117 main 1390 1388 P________PP___ EP041973 13.1497 -118.108 HU 100 3 13.1497 -118.108 TC 100 13.1301 -118.154 4 100 13 293
1973199N11253 1973 68 EP MM DOREEN 1973-07-20 06:00:00 TS 13.3943 -118.716 100 hurdat_epa main 1404 1404 O________OP___ hurdat_epa EP041973 13.4000 -118.700 HU 100 3 13.4000 -118.700 TC 100 13.3714 -118.780 4 100 13 291
1973199N11253 1973 68 EP MM DOREEN 1973-07-20 09:00:00 TS 13.6184 -119.358 main 1437 1436 P________PP___ EP041973 13.6224 -119.350 HU 100 3 13.6224 -119.350 TC 100 13.6020 -119.391 4 100 13 288
1973199N11253 1973 68 EP MM DOREEN 1973-07-20 12:00:00 TS 13.8000 -120.000 100 hurdat_epa main 1465 1465 O________OO___ hurdat_epa EP041973 13.8000 -120.000 HU 100 3 13.8000 -120.000 TC 100 13.8000 -120.000 4 100 13 284
1973199N11253 1973 68 EP MM DOREEN 1973-07-20 15:00:00 TS 13.9206 -120.609 main 1500 1500 P________PP___ EP041973 13.9147 -120.600 HU 110 3 13.9147 -120.600 TC 110 13.9439 -120.646 4 102 12 280
1973199N11253 1973 68 EP MM DOREEN 1973-07-20 18:00:00 TS 14.0105 -121.218 120 972 hurdat_epa main 1529 1529 O________OP___ hurdat_epa EP041973 14.0000 -121.200 HU 120 972 4 14.0000 -121.200 TC 120 972 14.0524 -121.288 4 105 12 279
1973199N11253 1973 68 EP MM DOREEN 1973-07-20 21:00:00 TS 14.1129 -121.868 main 1567 1567 P________PP___ EP041973 14.1075 -121.857 HU 115 4 14.1075 -121.857 TC 115 14.1346 -121.911 4 107 13 279
1973199N11253 1973 68 EP MM DOREEN 1973-07-21 00:00:00 TS 14.2000 -122.500 110 hurdat_epa main 1601 1601 O________OO___ hurdat_epa EP041973 14.2000 -122.500 HU 110 3 14.2000 -122.500 TC 110 14.2000 -122.500 4 110 12 277
1973199N11253 1973 68 EP MM DOREEN 1973-07-21 03:00:00 TS 14.2603 -123.074 main 1636 1636 P________PP___ EP041973 14.2574 -123.080 HU 100 3 14.2574 -123.080 TC 100 14.2719 -123.048 4 103 11 276
1973199N11253 1973 68 EP MM DOREEN 1973-07-21 06:00:00 TS 14.3059 -123.592 90 hurdat_epa main 1673 1673 O________OP___ hurdat_epa EP041973 14.3000 -123.600 HU 90 2 14.3000 -123.600 TC 90 14.3293 -123.560 4 97 10 276
1973199N11253 1973 68 EP MM DOREEN 1973-07-21 09:00:00 TS 14.3603 -124.066 main 1703 1703 P________PP___ EP041973 14.3574 -124.072 HU 87 2 14.3574 -124.072 TC 87 14.3721 -124.042 4 91 9 276
1973199N11253 1973 68 EP MM DOREEN 1973-07-21 12:00:00 TS 14.4000 -124.500 85 hurdat_epa main 1733 1733 O________OO___ hurdat_epa EP041973 14.4000 -124.500 HU 85 2 14.4000 -124.500 TC 85 14.4000 -124.500 4 85 8 273
1973199N11253 1973 68 EP MM DOREEN 1973-07-21 15:00:00 TS 14.4070 -124.909 main 1765 1765 P________PP___ EP041973 14.4074 -124.900 HU 82 1 14.4074 -124.900 TC 82 14.4058 -124.943 4 83 8 270
1973199N11253 1973 68 EP MM DOREEN 1973-07-21 18:00:00 TS 14.3999 -125.313 80 968 hurdat_epa main 1796 1796 O________OP___ hurdat_epa EP041973 14.4000 -125.300 HU 80 968 1 14.4000 -125.300 TC 80 968 14.3994 -125.365 4 82 8 269
1973199N11253 1973 68 EP MM DOREEN 1973-07-21 21:00:00 TS 14.3926 -125.750 main 1836 1836 P________PP___ EP041973 14.3925 -125.743 HU 80 1 14.3925 -125.743 TC 80 14.3933 -125.780 4 81 9 270
1973199N11253 1973 68 EP MM DOREEN 1973-07-22 00:00:00 TS 14.4000 -126.200 80 hurdat_epa main 1869 1869 O________OO___ hurdat_epa EP041973 14.4000 -126.200 HU 80 1 14.4000 -126.200 TC 80 14.4000 -126.200 4 80 9 273
1973199N11253 1973 68 EP MM DOREEN 1973-07-22 03:00:00 TS 14.4410 -126.647 main 1902 1902 P________PP___ EP041973 14.4424 -126.650 HU 80 1 14.4424 -126.650 TC 80 14.4353 -126.635 4 78 9 276
1973199N11253 1973 68 EP MM DOREEN 1973-07-22 06:00:00 TS 14.4969 -127.095 80 hurdat_epa main 1934 1934 O________OP___ hurdat_epa EP041973 14.5000 -127.100 HU 80 1 14.5000 -127.100 TC 80 14.4846 -127.077 4 77 9 277
1973199N11253 1973 68 EP MM DOREEN 1973-07-22 09:00:00 TS 14.5482 -127.540 main 1961 1959 P________PP___ EP041973 14.5499 -127.543 HU 77 1 14.5499 -127.543 TC 77 14.5415 -127.532 4 76 9 277
1973199N11253 1973 68 EP MM DOREEN 1973-07-22 12:00:00 TS 14.6000 -128.000 75 hurdat_epa main 1987 1987 O________OO___ hurdat_epa EP041973 14.6000 -128.000 HU 75 1 14.6000 -128.000 TC 75 14.6000 -128.000 4 75 9 276
1973199N11253 1973 68 EP MM DOREEN 1973-07-22 15:00:00 TS 14.6500 -128.494 main 2022 2014 P________PP___ EP041973 14.6499 -128.493 HU 70 1 14.6499 -128.493 TC 70 14.6500 -128.498 4 72 10 276
1973199N11253 1973 68 EP MM DOREEN 1973-07-22 18:00:00 TS 14.7000 -129.002 65 969 hurdat_epa main 2050 2050 O________OP___ hurdat_epa EP041973 14.7000 -129.000 HU 65 969 1 14.7000 -129.000 TC 65 969 14.7000 -129.008 4 70 10 276
1973199N11253 1973 68 EP MM DOREEN 1973-07-22 21:00:00 TS 14.7500 -129.509 main 2087 2078 P________PP___ EP041973 14.7499 -129.508 HU 65 1 14.7499 -129.508 TC 65 14.7500 -129.513 4 67 10 276
1973199N11253 1973 68 EP MM DOREEN 1973-07-23 00:00:00 TS 14.8000 -130.000 65 hurdat_epa main 2116 2116 O________OO___ hurdat_epa EP041973 14.8000 -130.000 HU 65 1 14.8000 -130.000 TC 65 14.8000 -130.000 4 65 9 276
1973199N11253 1973 68 EP MM DOREEN 1973-07-23 03:00:00 TS 14.8498 -130.460 main 2154 2146 P________PP___ EP041973 14.8499 -130.465 HU 65 1 14.8499 -130.465 TC 65 14.8494 -130.439 4 65 9 277
1973199N11253 1973 68 EP MM DOREEN 1973-07-23 06:00:00 TS 14.8999 -130.892 65 hurdat_epa main 2177 2177 O________OP___ hurdat_epa EP041973 14.9000 -130.900 HU 65 1 14.9000 -130.900 TC 65 14.8993 -130.858 4 65 8 277
1973199N11253 1973 68 EP MM DOREEN 1973-07-23 09:00:00 TS 14.9498 -131.295 main 2208 2201 P________PP___ EP041973 14.9498 -131.300 HU 65 1 14.9498 -131.300 TC 65 14.9495 -131.273 4 65 8 277
1973199N11253 1973 68 EP MM DOREEN 1973-07-23 12:00:00 TS 15.0000 -131.700 65 hurdat_epa main 2232 2232 O________OO___ hurdat_epa EP041973 15.0000 -131.700 HU 65 1 15.0000 -131.700 TC 65 15.0000 -131.700 4 65 8 277
1973199N11253 1973 68 EP MM DOREEN 1973-07-23 15:00:00 TS 15.0499 -132.139 main 2264 2264 P________PP___ EP041973 15.0499 -132.135 HU 65 1 15.0499 -132.135 TC 65 15.0497 -132.153 4 63 9 277
1973199N11253 1973 68 EP MM DOREEN 1973-07-23 18:00:00 TS 15.0999 -132.604 65 hurdat_epa main 2297 2297 O________OP___ hurdat_epa EP041973 15.1000 -132.600 HU 65 1 15.1000 -132.600 TC 65 15.0996 -132.620 4 62 9 276
1973199N11253 1973 68 EP MM DOREEN 1973-07-23 21:00:00 TS 15.1499 -133.095 main 2338 2299 P________PP___ EP041973 15.1499 -133.093 HU 65 1 15.1499 -133.093 TC 65 15.1497 -133.103 4 61 10 276
1973199N11253 1973 68 EP MM DOREEN 1973-07-24 00:00:00 TS 15.2000 -133.600 65 hurdat_epa main 2299 2247 O________OO___ hurdat_epa EP041973 15.2000 -133.600 HU 65 1 15.2000 -133.600 TC 65 15.2000 -133.600 2 60 10 276
1973199N11253 1973 68 EP MM DOREEN 1973-07-24 03:00:00 TS 15.2466 -134.095 main 2247 2193 P________PP___ EP041973 15.2498 -134.093 HU 65 1 15.2498 -134.093 TC 65 15.2334 -134.103 2 61 10 276
1973199N11253 1973 68 EP MM DOREEN 1973-07-24 06:00:00 TS 15.2939 -134.604 65 hurdat_epa main 2193 2141 O________OP___ hurdat_epa EP041973 15.3000 -134.600 HU 65 1 15.3000 -134.600 TC 65 15.2695 -134.621 2 62 10 275
1973199N11253 1973 68 EP MM DOREEN 1973-07-24 09:00:00 TS 15.3321 -135.139 main 2141 2076 P________PP___ EP041973 15.3349 -135.135 HU 65 1 15.3349 -135.135 TC 65 15.3208 -135.153 2 63 11 276
1973199N11253 1973 68 EP MM DOREEN 1973-07-24 12:00:00 TS 15.4000 -135.700 65 hurdat_epa main 2076 2011 O________OO___ hurdat_epa EP041973 15.4000 -135.700 HU 65 1 15.4000 -135.700 TC 65 15.4000 -135.700 4 65 11 280
1973199N11253 1973 68 EP MM DOREEN 1973-07-24 15:00:00 TS 15.5355 -136.298 main 2011 1943 P________PP___ EP041973 15.5350 -136.300 HU 65 1 15.5350 -136.300 TC 65 15.5378 -136.292 4 66 12 285
1973199N11253 1973 68 EP MM DOREEN 1973-07-24 18:00:00 TS 15.7001 -136.899 65 hurdat_epa main 1943 1875 O________OP___ hurdat_epa EP041973 15.7000 -136.900 HU 65 1 15.7000 -136.900 TC 65 15.7005 -136.894 4 67 12 286
1973199N11253 1973 68 EP MM DOREEN 1973-07-24 21:00:00 TS 15.8646 -137.485 main 1875 1821 P________PP___ EP041973 15.8650 -137.487 HU 67 1 15.8650 -137.487 TC 67 15.8628 -137.474 4 68 11 286
1973199N11253 1973 68 EP MM DOREEN 1973-07-25 00:00:00 TS 16.0000 -138.000 70 hurdat_epa main 1821 1776 O________OO___ hurdat_epa EP041973 16.0000 -138.000 HU 70 1 16.0000 -138.000 TC 70 16.0000 -138.000 4 70 9 283
1973199N11253 1973 68 EP MM DOREEN 1973-07-25 03:00:00 TS 16.0682 -138.382 main 1776 1745 P________PP___ EP041973 16.0647 -138.373 HU 70 1 16.0647 -138.373 TC 70 16.0818 -138.421 4 70 7 279
1973199N11253 1973 68 EP MM DOREEN 1973-07-25 06:00:00 TS 16.1072 -138.718 70 hurdat_epa main 1745 1701 O________OP___ hurdat_epa EP041973 16.1000 -138.700 HU 70 1 16.1000 -138.700 TC 70 16.1362 -138.788 4 70 7 277
1973199N11253 1973 68 EP MM DOREEN 1973-07-25 09:00:00 TS 16.1545 -139.095 main 1701 1660 P________PP___ EP041973 16.1499 -139.085 HU 65 1 16.1499 -139.085 TC 65 16.1726 -139.136 4 70 8 277
1973199N11253 1973 68 EP MM DOREEN 1973-07-25 12:00:00 TS 16.2000 -139.500 60 hurdat_epa main 1660 1619 O________OO___ hurdat_epa EP041973 16.2000 -139.500 TS 60 0 16.2000 -139.500 TC 60 16.2000 -139.500 4 70 8 277
1973199N11253 1973 68 EP MM DOREEN 1973-07-25 15:00:00 TS 16.2515 -139.935 main 1616 1575 P________PP___ EP041973 16.2575 -139.942 TS 57 0 16.2575 -139.942 TC 57 16.2277 -139.904 4 65 8 278
1973199N11253 1973 68 EP CP DOREEN 1973-07-25 18:00:00 TS 16.3141 -140.363 55 hurdat_epa main 1564 1523 O________OP___ hurdat_epa EP041973 16.3000 -140.400 TS 55 0 16.3000 -140.400 TC 55 16.2492 -140.333 4 60 8 276
1973199N11253 1973 68 EP CP DOREEN 1973-07-25 21:00:00 TS 16.3398 -140.787 main 1523 1479 P________PP___ EP041973 16.2997 -140.828 TS 52 0 16.2997 -140.828 TC 52 16.2712 -140.795 4 55 9 273
1973199N11253 1973 68 EP CP DOREEN 1973-07-26 00:00:00 TS 16.3652 -141.261 50 hurdat_epa main 1469 1417 O________OO___ hurdat_epa EP041973 16.3000 -141.300 TS 50 0 16.3000 -141.300 TC 50 16.3000 -141.300 2 50 10 275
1973199N11253 1973 68 EP CP DOREEN 1973-07-26 03:00:00 TS 16.4235 -141.828 main 1417 1353 P________PP___ EP041973 16.3425 -141.877 TS 50 0 16.3425 -141.877 TC 50 16.3635 -141.873 2 50 11 275
1973199N11253 1973 68 EP CP DOREEN 1973-07-26 06:00:00 TS 16.4718 -142.447 50 hurdat_epa main 1353 1292 O________OP___ hurdat_epa EP041973 16.4000 -142.500 TS 50 0 16.4000 -142.500 TC 50 16.4305 -142.484 2 50 12 275
1973199N11253 1973 68 EP CP DOREEN 1973-07-26 09:00:00 TS 16.5178 -143.068 main 1281 1230 P________PP___ EP041973 16.4574 -143.107 TS 50 0 16.4574 -143.107 TC 50 16.4822 -143.104 2 50 12 273
1973199N11253 1973 68 EP CP DOREEN 1973-07-26 12:00:00 TS 16.5333 -143.667 50 hurdat_epa main 1220 1170 O________OO___ hurdat_epa EP041973 16.5000 -143.700 TS 50 0 16.5000 -143.700 TC 50 16.5000 -143.700 2 50 11 270
1973199N11253 1973 68 EP CP DOREEN 1973-07-26 15:00:00 TS 16.5149 -144.225 main 1170 1119 P________PP___ EP041973 16.5299 -144.272 TS 47 0 16.5299 -144.272 TC 47 16.5176 -144.265 2 10 264
1973199N11253 1973 68 EP CP DOREEN 1973-07-26 18:00:00 TS 16.4321 -144.733 45 hurdat_epa main 1123 1076 O________OP___ hurdat_epa EP041973 16.5000 -144.800 TS 45 0 16.5000 -144.800 TC 45 16.4923 -144.797 2 10 257
1973199N11253 1973 68 EP CP DOREEN 1973-07-26 21:00:00 TS 16.2917 -145.200 main 1076 1045 P________PP___ EP041973 16.4099 -145.287 TS 42 0 16.4099 -145.287 TC 42 16.3959 -145.281 2 9 245
1973199N11253 1973 68 EP CP DOREEN 1973-07-27 00:00:00 TS 16.0500 -145.600 40 hurdat_epa main 1045 1029 O________OO___ hurdat_epa EP041973 16.2000 -145.700 TS 40 0 16.2000 -145.700 TC 40 16.2000 -145.700 2 9 229
1973199N11253 1973 68 EP CP DOREEN 1973-07-27 03:00:00 TS 15.6865 -145.926 main 1034 1025 P________PP___ EP041973 15.8449 -146.030 TS 45 0 15.8449 -146.030 TC 45 15.8547 -146.044 2 10 216
1973199N11253 1973 68 EP CP DOREEN 1973-07-27 06:00:00 TS 15.2528 -146.204 50 hurdat_epa main 1026 1020 O________OP___ hurdat_epa EP041973 15.4000 -146.300 TS 50 0 15.4000 -146.300 TC 50 15.4168 -146.325 2 10 212
1973199N11253 1973 68 EP CP DOREEN 1973-07-27 09:00:00 TS 14.8155 -146.482 main 1026 1023 P________PP___ EP041973 14.9424 -146.557 TS 52 0 14.9424 -146.557 TC 52 14.9455 -146.569 2 10 212
1973199N11253 1973 68 EP CP DOREEN 1973-07-27 12:00:00 TS 14.4000 -146.750 55 hurdat_epa main 1033 1022 O________OO___ hurdat_epa EP041973 14.5000 -146.800 TS 55 0 14.5000 -146.800 TC 55 14.5000 -146.800 2 40 9 214
1973199N11253 1973 68 EP CP DOREEN 1973-07-27 15:00:00 TS 14.0392 -147.018 main 1033 1022 P________PP___ EP041973 14.1200 -147.050 TS 57 0 14.1200 -147.050 TC 57 14.1355 -147.049 2 48 8 218
1973199N11253 1973 68 EP CP DOREEN 1973-07-27 18:00:00 TS 13.7350 -147.282 60 hurdat_epa main 1029 1020 O________OP___ hurdat_epa EP041973 13.8000 -147.300 TS 60 0 13.8000 -147.300 TC 60 13.8098 -147.292 2 57 8 223
1973199N11253 1973 68 EP CP DOREEN 1973-07-27 21:00:00 TS 13.4811 -147.546 main 1027 1019 P________PP___ EP041973 13.5200 -147.542 TS 67 1 13.5200 -147.542 TC 67 13.5292 -147.539 2 66 7 229
1973199N11253 1973 68 EP CP DOREEN 1973-07-28 00:00:00 TS 13.2833 -147.817 75 hurdat_epa main 1019 1011 O________OO___ hurdat_epa EP041973 13.3000 -147.800 HU 75 1 13.3000 -147.800 TC 75 13.3000 -147.800 4 75 7 236
1973199N11253 1973 68 EP CP DOREEN 1973-07-28 03:00:00 TS 13.1185 -148.102 main 1011 996 P________PP___ EP041973 13.1275 -148.092 HU 75 1 13.1275 -148.092 TC 75 13.1083 -148.077 4 75 6 243
1973199N11253 1973 68 EP CP DOREEN 1973-07-28 06:00:00 TS 12.9946 -148.395 75 hurdat_epa main 996 982 O________OP___ hurdat_epa EP041973 13.0000 -148.400 HU 75 1 13.0000 -148.400 TC 75 12.9674 -148.370 4 75 6 248
1973199N11253 1973 68 EP CP DOREEN 1973-07-28 09:00:00 TS 12.8904 -148.683 main 982 969 P________PP___ EP041973 12.8849 -148.692 HU 77 1 12.8849 -148.692 TC 77 12.8677 -148.677 4 75 6 253
1973199N11253 1973 68 EP CP DOREEN 1973-07-28 12:00:00 TS 12.8167 -148.983 80 hurdat_epa main 969 948 O________OO___ hurdat_epa EP041973 12.8000 -149.000 HU 80 1 12.8000 -149.000 TC 80 12.8000 -149.000 4 75 6 258
1973199N11253 1973 68 EP CP DOREEN 1973-07-28 15:00:00 TS 12.7590 -149.304 main 948 937 P________PP___ EP041973 12.7350 -149.342 HU 82 1 12.7350 -149.342 TC 82 12.7217 -149.328 4 78 7 262
1973199N11253 1973 68 EP CP DOREEN 1973-07-28 18:00:00 TS 12.7291 -149.645 85 hurdat_epa main 937 911 O________OP___ hurdat_epa EP041973 12.7000 -149.700 HU 85 2 12.7000 -149.700 TC 85 12.6748 -149.670 4 82 7 266
1973199N11253 1973 68 EP CP DOREEN 1973-07-28 21:00:00 TS 12.7100 -149.997 main 911 893 P________PP___ EP041973 12.6774 -150.043 HU 87 2 12.6774 -150.043 TC 87 12.6655 -150.028 4 86 7 270
1973199N11253 1973 68 EP CP DOREEN 1973-07-29 00:00:00 TS 12.7333 -150.367 90 hurdat_epa main 887 860 O________OO___ hurdat_epa EP041973 12.7000 -150.400 HU 90 2 12.7000 -150.400 TC 90 12.7000 -150.400 4 90 7 278
1973199N11253 1973 68 EP CP DOREEN 1973-07-29 03:00:00 TS 12.8122 -150.751 main 854 828 P________PP___ EP041973 12.7775 -150.792 HU 90 2 12.7775 -150.792 TC 90 12.7859 -150.785 4 92 8 285
1973199N11253 1973 68 EP CP DOREEN 1973-07-29 06:00:00 TS 12.9354 -151.147 90 hurdat_epa main 828 788 O________OP___ hurdat_epa EP041973 12.9000 -151.200 HU 90 2 12.9000 -151.200 TC 90 12.9124 -151.185 4 95 8 289
1973199N11253 1973 68 EP CP DOREEN 1973-07-29 09:00:00 TS 13.0846 -151.546 main 788 756 P________PP___ EP041973 13.0499 -151.600 HU 95 2 13.0499 -151.600 TC 95 13.0577 -151.592 4 97 8 291
1973199N11253 1973 68 EP CP DOREEN 1973-07-29 12:00:00 TS 13.2333 -151.950 100 hurdat_epa main 756 724 O________OO___ hurdat_epa EP041973 13.2000 -152.000 HU 100 3 13.2000 -152.000 TC 100 13.2000 -152.000 4 100 8 288
1973199N11253 1973 68 EP CP DOREEN 1973-07-29 15:00:00 TS 13.3381 -152.354 main 719 693 P________PP___ EP041973 13.3074 -152.400 HU 95 2 13.3074 -152.400 TC 95 13.2986 -152.376 4 100 8 284
1973199N11253 1973 68 EP CP DOREEN 1973-07-29 18:00:00 TS 13.4320 -152.759 90 hurdat_epa main 689 665 O________OP___ hurdat_epa EP041973 13.4000 -152.800 HU 90 2 13.4000 -152.800 TC 90 13.3918 -152.756 4 100 8 284
1973199N11253 1973 68 EP CP DOREEN 1973-07-29 21:00:00 TS 13.5334 -153.142 main 665 637 P________PP___ EP041973 13.4923 -153.178 HU 90 2 13.4923 -153.178 TC 90 13.4891 -153.157 4 100 8 286
1973199N11253 1973 68 EP CP DOREEN 1973-07-30 00:00:00 TS 13.6500 -153.567 90 hurdat_epa main 623 595 O________OO___ hurdat_epa EP041973 13.6000 -153.600 HU 90 2 13.6000 -153.600 TC 90 13.6000 -153.600 4 100 10 286
1973199N11253 1973 68 EP CP DOREEN 1973-07-30 03:00:00 TS 13.7925 -154.089 main 595 571 P________PP___ EP041973 13.7425 -154.128 HU 87 2 13.7425 -154.128 TC 87 13.7274 -154.099 4 97 11 286
1973199N11253 1973 68 EP CP DOREEN 1973-07-30 06:00:00 TS 13.9450 -154.657 85 hurdat_epa main 569 539 O________OP___ hurdat_epa EP041973 13.9000 -154.700 HU 85 2 13.9000 -154.700 TC 85 13.8699 -154.640 4 95 11 285
1973199N11253 1973 68 EP CP DOREEN 1973-07-30 09:00:00 TS 14.0840 -155.205 main 539 526 P________PP___ EP041973 14.0423 -155.243 HU 85 2 14.0423 -155.243 TC 85 14.0273 -155.212 4 92 11 285
1973199N11253 1973 68 EP CP DOREEN 1973-07-30 12:00:00 TS 14.2333 -155.767 85 hurdat_epa main 526 506 O________OO___ hurdat_epa EP041973 14.2000 -155.800 HU 85 2 14.2000 -155.800 TC 85 14.2000 -155.800 4 90 12 286
1973199N11253 1973 68 EP CP DOREEN 1973-07-30 15:00:00 TS 14.4040 -156.352 main 509 495 P________PP___ EP041973 14.3924 -156.393 HU 82 1 14.3924 -156.393 TC 82 14.3773 -156.390 4 12 288
1973199N11253 1973 68 EP CP DOREEN 1973-07-30 18:00:00 TS 14.5950 -156.949 80 hurdat_epa main 497 493 O________OP___ hurdat_epa EP041973 14.6000 -157.000 HU 80 1 14.6000 -157.000 TC 80 14.5697 -156.993 4 12 289
1973199N11253 1973 68 EP CP DOREEN 1973-07-30 21:00:00 TS 14.7957 -157.544 main 497 495 P________PP___ EP041973 14.7924 -157.608 HU 80 1 14.7924 -157.608 TC 80 14.7773 -157.599 4 12 290
1973199N11253 1973 68 EP CP DOREEN 1973-07-31 00:00:00 TS 15.0167 -158.133 80 hurdat_epa main 505 501 O________OO___ hurdat_epa EP041973 15.0000 -158.200 HU 80 1 15.0000 -158.200 TC 80 15.0000 -158.200 4 12 293
1973199N11253 1973 68 EP CP DOREEN 1973-07-31 03:00:00 TS 15.2609 -158.700 main 513 513 P________PP___ EP041973 15.2423 -158.750 HU 77 1 15.2423 -158.750 TC 77 15.2388 -158.762 4 12 294
1973199N11253 1973 68 EP CP DOREEN 1973-07-31 06:00:00 TS 15.5152 -159.270 75 hurdat_epa main 539 539 O________OP___ hurdat_epa EP041973 15.5000 -159.300 HU 75 1 15.5000 -159.300 TC 75 15.4912 -159.321 4 12 294
1973199N11253 1973 68 EP CP DOREEN 1973-07-31 09:00:00 TS 15.7641 -159.864 main 562 562 P________PP___ EP041973 15.7573 -159.885 HU 75 1 15.7573 -159.885 TC 75 15.7480 -159.894 4 13 293
1973199N11253 1973 68 EP CP DOREEN 1973-07-31 12:00:00 TS 16.0000 -160.483 75 hurdat_epa main 598 598 O________OO___ hurdat_epa EP041973 16.0000 -160.500 HU 75 1 16.0000 -160.500 TC 75 16.0000 -160.500 4 75 13 290
1973199N11253 1973 68 EP CP DOREEN 1973-07-31 15:00:00 TS 16.2037 -161.117 main 639 639 P________PP___ EP041973 16.1997 -161.128 HU 72 1 16.1997 -161.128 TC 72 16.2235 -161.149 4 72 13 288
1973199N11253 1973 68 EP CP DOREEN 1973-07-31 18:00:00 TS 16.4069 -161.789 70 hurdat_epa main 660 653 O________OP___ hurdat_epa EP041973 16.4000 -161.800 HU 70 1 16.4000 -161.800 TC 70 16.4417 -161.834 4 70 14 288
1973199N11253 1973 68 EP CP DOREEN 1973-07-31 21:00:00 TS 16.6363 -162.509 main 667 661 P________PP___ EP041973 16.6423 -162.528 HU 67 1 16.6423 -162.528 TC 67 16.6639 -162.552 4 67 15 289
1973199N11253 1973 68 EP CP DOREEN 1973-08-01 00:00:00 TS 16.8833 -163.267 65 hurdat_epa main 678 678 O________OO___ hurdat_epa EP041973 16.9000 -163.300 HU 65 1 16.9000 -163.300 TC 65 16.9000 -163.300 4 65 16 289
1973199N11253 1973 68 EP CP DOREEN 1973-08-01 03:00:00 TS 17.1382 -164.046 main 702 700 P________PP___ EP041973 17.1423 -164.093 HU 65 1 17.1423 -164.093 TC 65 17.1527 -164.096 4 63 16 289
1973199N11253 1973 68 EP CP DOREEN 1973-08-01 06:00:00 TS 17.4034 -164.836 65 hurdat_epa main 733 733 O________OP___ hurdat_epa EP041973 17.4000 -164.900 HU 65 1 17.4000 -164.900 TC 65 17.4204 -164.915 4 62 16 290
1973199N11253 1973 68 EP CP DOREEN 1973-08-01 09:00:00 TS 17.6741 -165.624 main 773 773 P________PP___ EP041973 17.6924 -165.715 HU 62 0 17.6924 -165.715 TC 62 17.7028 -165.727 4 61 16 290
1973199N11253 1973 68 EP CP DOREEN 1973-08-01 12:00:00 TS 17.9500 -166.383 60 hurdat_epa main 821 821 O________OO___ hurdat_epa EP041973 18.0000 -166.500 TS 60 0 18.0000 -166.500 TC 60 18.0000 -166.500 2 60 15 291
1973199N11253 1973 68 EP CP DOREEN 1973-08-01 15:00:00 TS 18.2214 -167.099 main 872 872 P________PP___ EP041973 18.2922 -167.230 TS 57 0 18.2922 -167.230 TC 57 18.3098 -167.222 2 57 14 293
1973199N11253 1973 68 EP CP DOREEN 1973-08-01 18:00:00 TS 18.5057 -167.766 55 hurdat_epa main 921 921 O________OP___ hurdat_epa EP041973 18.6000 -167.900 TS 55 0 18.6000 -167.900 TC 55 18.6341 -167.898 2 55 14 296
1973199N11253 1973 68 EP CP DOREEN 1973-08-01 21:00:00 TS 18.8130 -168.406 main 964 964 P________PP___ EP041973 18.9423 -168.538 TS 52 0 18.9423 -168.538 TC 52 18.9663 -168.525 2 52 13 299
1973199N11253 1973 68 EP CP DOREEN 1973-08-02 00:00:00 TS 19.1333 -168.983 50 hurdat_epa main 1010 1007 O________OO___ hurdat_epa EP041973 19.3000 -169.100 TS 50 0 19.3000 -169.100 TC 50 19.3000 -169.100 2 50 12 303
1973199N11253 1973 68 EP CP DOREEN 1973-08-02 03:00:00 TS 19.4731 -169.479 main 1046 1046 P________PP___ EP041973 19.6571 -169.565 TS 47 0 19.6571 -169.565 TC 47 19.7251 -169.608 2 46 11 307
1973199N11253 1973 68 EP CP DOREEN 1973-08-02 06:00:00 TS 19.8059 -169.945 45 hurdat_epa main 1077 1077 O________OP___ hurdat_epa EP041973 20.0000 -170.000 TS 45 0 20.0000 -170.000 TC 45 20.1355 -170.070 2 42 11 307
1973199N11253 1973 68 EP CP DOREEN 1973-08-02 09:00:00 TS 20.1453 -170.437 main 1119 1119 P________PP___ EP041973 20.3673 -170.477 TS 40 0 20.3673 -170.477 TC 40 20.4532 -170.523 2 38 11 300
1973199N11253 1973 68 EP CP DOREEN 1973-08-02 12:00:00 TS 20.3667 -170.967 35 hurdat_epa main 1174 1174 O________OO___ hurdat_epa EP041973 20.6000 -171.000 TS 35 0 20.6000 -171.000 TC 35 20.6000 -171.000 2 35 11 284
1973199N11253 1973 68 EP CP DOREEN 1973-08-02 15:00:00 TS 20.4013 -171.555 main 1235 1235 P________PP___ EP041973 20.6200 -171.592 TS 35 0 20.6200 -171.592 TC 35 20.5204 -171.528 2 35 11 264
1973199N11253 1973 68 EP CP DOREEN 1973-08-02 18:00:00 TS 20.2421 -172.166 35 hurdat_epa main 1301 1301 O________OP___ hurdat_epa EP041973 20.4000 -172.200 TS 35 0 20.4000 -172.200 TC 35 20.2526 -172.098 2 35 12 247
1973199N11253 1973 68 EP CP DOREEN 1973-08-02 21:00:00 TS 19.9162 -172.758 main 1369 1369 P________PP___ EP041973 19.9602 -172.766 TS 32 -1 19.9602 -172.766 TC 32 19.8584 -172.694 2 35 13 236
1973199N11253 1973 68 EP CP DOREEN 1973-08-03 00:00:00 TS 19.5000 -173.333 30 hurdat_epa main 1430 O________OO___ hurdat_epa EP041973 19.4000 -173.300 TD 30 -1 19.4000 -173.300 TC 30 19.4000 -173.300 2 35 14 233

IBTrACS Databaseについて

本データベースは、米国NOAAが公開する1842年以降の世界の熱帯低気圧のベストトラックデータアーカイブInternational Best Track Archive for Climate Stewardship (IBTrACS)を、ウェブで閲覧しやすい形式に変換したものです。

最終更新日:2021-10-21